Time;durP1;ratioP1;P1;durP2;ratioP2;P2;SDS_P1;SDS_P2;PMS_P1;PMS_P2;Temp;Humidity;BMP_temperature;BMP_pressure;BME280_temperature;BME280_humidity;BME280_pressure;Samples;Min_cycle;Max_cycle;Signal;HPM_P1;HPM_P2
2022/04/10 00:02:16;;;;;;;;;3.20;3.20;;;;;3.27;72.13;99963.81;5057797;28;8827;-63
2022/04/10 00:04:44;;;;;;;;;2.60;1.40;;;;;3.25;71.76;99966.53;5058576;28;8834;-63
2022/04/10 00:07:12;;;;;;;;;2.60;2.20;;;;;3.27;71.95;99967.28;5057802;28;9597;-63
2022/04/10 00:09:40;;;;;;;;;1.00;1.00;;;;;3.30;71.83;99966.28;5055947;28;8852;-63
2022/04/10 00:12:07;;;;;;;;;1.00;1.00;;;;;3.35;72.06;99978.31;5057803;28;8826;-63
2022/04/10 00:14:35;;;;;;;;;1.00;1.00;;;;;3.42;71.43;99971.78;5058130;28;8827;-63
2022/04/10 00:17:03;;;;;;;;;2.60;2.60;;;;;3.46;71.89;99972.47;5046884;28;8850;-63
2022/04/10 00:19:31;;;;;;;;;3.00;3.00;;;;;3.47;71.37;99971.59;5040744;28;8850;-63
2022/04/10 00:21:58;;;;;;;;;2.60;2.60;;;;;3.45;71.73;99973.41;5057121;28;8826;-63
2022/04/10 00:24:28;;;;;;;;;3.00;3.00;;;;;3.41;71.42;99972.72;5057597;28;9497;-63
2022/04/10 00:26:55;;;;;;;;;3.40;3.00;;;;;3.38;71.63;99972.03;5055199;28;8851;-63
2022/04/10 00:29:23;;;;;;;;;3.00;3.00;;;;;3.35;71.85;99978.31;5037607;28;8974;-63
2022/04/10 00:31:51;;;;;;;;;2.60;1.80;;;;;3.33;71.80;99977.50;5046836;28;8828;-63
2022/04/10 00:34:19;;;;;;;;;2.60;2.60;;;;;3.32;71.88;99982.88;5057032;28;8833;-63
2022/04/10 00:36:46;;;;;;;;;1.80;1.40;;;;;3.30;72.11;99979.44;5056317;28;8826;-63
2022/04/10 00:39:14;;;;;;;;;3.80;3.80;;;;;3.28;71.85;99982.19;5053487;28;9188;-63
2022/04/10 00:41:42;;;;;;;;;0.00;0.00;;;;;3.28;71.73;99986.56;5036646;28;8867;-62
2022/04/10 00:44:10;;;;;;;;;3.00;2.20;;;;;3.25;72.27;99992.84;5036447;28;8837;-63
2022/04/10 00:46:37;;;;;;;;;3.00;3.00;;;;;3.21;72.19;99986.03;5043711;28;8837;-62
2022/04/10 00:49:05;;;;;;;;;1.00;0.60;;;;;3.19;71.99;99987.88;5056804;28;8972;-63
2022/04/10 00:51:43;;;;;;;;;1.80;1.80;;;;;3.19;72.34;99987.88;5054535;28;8835;-63
2022/04/10 00:54:11;;;;;;;;;6.00;4.00;;;;;3.17;72.50;99996.78;5056855;28;8845;-65
2022/04/10 00:56:39;;;;;;;;;0.40;0.40;;;;;3.13;72.72;99993.44;5057035;28;8904;-63
2022/04/10 00:59:07;;;;;;;;;0.80;0.80;;;;;3.13;72.49;99996.09;5047893;28;8864;-63
2022/04/10 01:01:34;;;;;;;;;1.40;1.40;;;;;3.13;72.40;100003.09;5040093;28;8847;-63
2022/04/10 01:04:22;;;;;;;;;3.00;3.00;;;;;3.11;72.21;99997.91;5056452;28;8854;-64
2022/04/10 01:06:50;;;;;;;;;3.20;2.60;;;;;3.10;72.13;99996.22;5056108;28;8818;-63
2022/04/10 01:09:20;;;;;;;;;0.00;0.00;;;;;3.10;72.19;99993.59;5057132;28;9511;-64
2022/04/10 01:11:48;;;;;;;;;0.40;0.20;;;;;3.11;72.66;99999.72;5039136;28;8838;-63
2022/04/10 01:14:16;;;;;;;;;1.00;1.00;;;;;3.10;72.25;99998.84;5036605;28;8812;-64
2022/04/10 01:16:43;;;;;;;;;4.00;4.00;;;;;3.15;72.79;99996.84;5044371;28;8835;-63
2022/04/10 01:19:11;;;;;;;;;3.80;3.00;;;;;3.17;72.67;100000.25;5057105;28;8865;-63
2022/04/10 01:21:39;;;;;;;;;0.00;0.00;;;;;3.20;72.74;100004.50;5054904;28;8834;-64
2022/04/10 01:24:06;;;;;;;;;3.00;3.00;;;;;3.22;72.78;100002.66;5053529;28;9467;-64
2022/04/10 01:26:34;;;;;;;;;3.40;3.40;;;;;3.25;72.55;99999.88;5035411;28;8821;-64
2022/04/10 01:29:02;;;;;;;;;1.80;1.00;;;;;3.31;72.49;100003.06;5035738;28;8860;-62
2022/04/10 01:31:29;;;;;;;;;1.00;1.00;;;;;3.37;71.98;99997.50;5048497;28;8833;-65
2022/04/10 01:33:57;;;;;;;;;1.80;1.80;;;;;3.38;71.71;99998.34;5036474;28;8857;-63
2022/04/10 01:36:25;;;;;;;;;3.00;3.00;;;;;3.35;72.16;100001.13;5034459;28;8971;-63
2022/04/10 01:38:53;;;;;;;;;3.00;3.00;;;;;3.32;71.98;100002.13;5049529;28;8849;-63
2022/04/10 01:41:21;;;;;;;;;2.20;1.40;;;;;3.27;72.43;100003.28;5056298;28;8811;-63
2022/04/10 01:43:49;;;;;;;;;3.00;3.00;;;;;3.22;72.50;100003.53;5054089;28;8846;-63
2022/04/10 01:46:17;;;;;;;;;4.40;4.40;;;;;3.19;72.44;100005.44;5052474;28;8836;-63
2022/04/10 01:48:45;;;;;;;;;2.60;2.60;;;;;3.18;73.24;100001.94;5036558;28;8836;-63
2022/04/10 01:51:13;;;;;;;;;2.60;1.00;;;;;3.17;73.21;100000.25;5036459;28;8824;-63
2022/04/10 01:53:40;;;;;;;;;3.00;3.00;;;;;3.15;73.20;100012.63;5036516;28;8836;-63
2022/04/10 01:56:08;;;;;;;;;2.60;2.20;;;;;3.12;73.10;100006.66;5037389;28;8832;-63
2022/04/10 01:58:36;;;;;;;;;3.00;1.00;;;;;3.11;72.69;100007.59;5035932;28;8837;-63
2022/04/10 02:01:04;;;;;;;;;3.00;3.00;;;;;3.09;73.29;100005.03;5044184;28;8830;-63
2022/04/10 02:03:32;;;;;;;;;2.20;1.80;;;;;3.07;72.86;100011.28;5054908;28;8827;-63
2022/04/10 02:06:00;;;;;;;;;1.00;1.00;;;;;3.04;73.37;100017.53;5055785;28;8831;-63
2022/04/10 02:08:28;;;;;;;;;1.80;1.80;;;;;3.02;73.16;100008.88;5055932;28;8827;-63
2022/04/10 02:10:56;;;;;;;;;1.00;1.00;;;;;3.04;73.12;100006.19;5055089;28;8814;-63
2022/04/10 02:13:24;;;;;;;;;5.60;3.00;;;;;3.07;72.82;99999.00;5054345;28;9520;-63
2022/04/10 02:15:53;;;;;;;;;3.00;3.00;;;;;3.14;73.14;100002.19;5049083;28;8856;-63
2022/04/10 02:18:21;;;;;;;;;3.00;3.00;;;;;3.18;72.64;99994.06;5054623;28;8827;-63
2022/04/10 02:20:48;;;;;;;;;3.00;3.00;;;;;3.18;72.27;100001.13;5055523;28;9040;-64
2022/04/10 02:23:17;;;;;;;;;3.20;3.00;;;;;3.12;73.21;99994.38;5055153;28;8957;-63
2022/04/10 02:25:45;;;;;;;;;3.20;3.00;;;;;3.11;72.89;99995.28;5055047;28;8834;-63
2022/04/10 02:28:13;;;;;;;;;1.40;1.00;;;;;3.07;72.86;100004.25;5054119;28;8890;-62
2022/04/10 02:30:41;;;;;;;;;1.00;1.00;;;;;3.03;73.09;99986.91;5055027;28;8892;-63
2022/04/10 02:33:08;;;;;;;;;1.40;1.40;;;;;2.98;73.43;99999.47;5041626;28;8817;-64
2022/04/10 02:35:36;;;;;;;;;3.40;3.00;;;;;2.95;72.98;100001.38;5035239;28;8820;-63
2022/04/10 02:38:04;;;;;;;;;3.00;3.00;;;;;2.93;73.11;100004.06;5054895;28;8951;-63
2022/04/10 02:40:32;;;;;;;;;3.40;3.40;;;;;2.90;73.20;100004.22;5055505;28;8846;-63
2022/04/10 02:42:59;;;;;;;;;3.20;1.80;;;;;2.93;73.24;100013.72;5055352;28;8848;-64
2022/04/10 02:45:28;;;;;;;;;4.00;3.60;;;;;2.97;73.46;100008.28;5055419;28;8992;-63
2022/04/10 02:47:56;;;;;;;;;3.00;2.60;;;;;3.05;73.23;100010.53;5050648;28;8880;-63
2022/04/10 02:50:24;;;;;;;;;1.00;1.00;;;;;3.11;72.67;100013.69;5045115;28;8882;-65
2022/04/10 02:52:53;;;;;;;;;3.80;2.60;;;;;3.20;72.61;100020.28;5034660;28;8841;-64
2022/04/10 02:55:21;;;;;;;;;1.00;1.00;;;;;3.28;72.79;100013.75;5034409;28;8839;-63
2022/04/10 02:57:49;;;;;;;;;4.00;3.00;;;;;3.34;72.92;100018.69;5034602;28;8883;-64
2022/04/10 03:00:17;;;;;;;;;2.60;2.60;;;;;3.37;72.08;100015.91;5034578;28;8840;-64
2022/04/10 03:02:46;;;;;;;;;1.00;0.60;;;;;3.38;72.38;100022.88;5048202;28;9508;-64
2022/04/10 03:05:15;;;;;;;;;2.80;1.00;;;;;3.36;71.88;100022.13;5052873;28;8932;-63
2022/04/10 03:07:43;;;;;;;;;2.20;2.20;;;;;3.31;72.36;100023.25;5036558;28;8966;-63
2022/04/10 03:10:10;;;;;;;;;2.20;1.80;;;;;3.27;72.59;100022.53;5033328;28;8851;-63
2022/04/10 03:12:38;;;;;;;;;3.80;3.80;;;;;3.27;72.58;100027.81;5033226;28;9563;-63
2022/04/10 03:15:07;;;;;;;;;4.00;4.00;;;;;3.29;72.65;100036.50;5034975;28;8833;-63
2022/04/10 03:17:34;;;;;;;;;4.00;4.00;;;;;3.33;73.15;100031.94;5052923;28;8845;-63
2022/04/10 03:20:02;;;;;;;;;4.80;4.00;;;;;3.36;72.49;100030.00;5040695;28;8824;-63
2022/04/10 03:22:30;;;;;;;;;3.00;3.00;;;;;3.39;72.25;100029.84;5038702;28;8962;-63
2022/04/10 03:24:58;;;;;;;;;1.00;1.00;;;;;3.41;72.23;100040.31;5038579;28;9049;-63
2022/04/10 03:27:25;;;;;;;;;2.20;2.20;;;;;3.45;72.98;100041.84;5038833;28;8938;-63
2022/04/10 03:29:53;;;;;;;;;3.80;3.00;;;;;3.47;72.60;100040.84;5038889;28;8828;-64
2022/04/10 03:32:21;;;;;;;;;4.00;3.00;;;;;3.45;72.98;100042.72;5038774;28;8825;-64
2022/04/10 03:34:49;;;;;;;;;4.00;4.00;;;;;3.42;72.18;100044.63;5038552;28;8837;-63
2022/04/10 03:37:17;;;;;;;;;2.20;2.20;;;;;3.43;72.22;100049.84;5053769;28;8845;-63
2022/04/10 03:39:44;;;;;;;;;3.00;3.00;;;;;3.47;72.40;100042.66;5058907;28;8832;-63
2022/04/10 03:42:12;;;;;;;;;3.00;3.00;;;;;3.50;72.51;100059.13;5057802;28;8826;-65
2022/04/10 03:44:40;;;;;;;;;3.40;3.40;;;;;3.53;72.22;100050.22;5058498;28;9505;-63
2022/04/10 03:47:08;;;;;;;;;3.00;1.00;;;;;3.54;72.71;100052.78;5046372;28;8838;-64
2022/04/10 03:49:35;;;;;;;;;2.40;2.40;;;;;3.52;72.85;100059.03;5042538;28;8838;-63
2022/04/10 03:52:03;;;;;;;;;4.80;4.80;;;;;3.47;71.88;100055.81;5058353;28;8838;-64
2022/04/10 03:54:31;;;;;;;;;3.00;3.00;;;;;3.43;72.11;100054.22;5058619;28;8837;-63
2022/04/10 03:56:59;;;;;;;;;3.00;3.00;;;;;3.40;72.64;100064.91;5058388;28;8854;-63
2022/04/10 03:59:26;;;;;;;;;3.00;3.00;;;;;3.34;72.53;100060.78;5058374;28;8835;-65
2022/04/10 04:01:54;;;;;;;;;5.60;4.00;;;;;3.30;72.42;100069.78;5053310;28;8872;-63
2022/04/10 04:04:22;;;;;;;;;1.00;1.00;;;;;3.26;73.08;100067.38;5057385;28;8839;-63
2022/04/10 04:06:50;;;;;;;;;3.00;3.00;;;;;3.24;73.11;100074.50;5057845;28;8841;-63
2022/04/10 04:09:18;;;;;;;;;6.80;4.00;;;;;3.21;72.97;100080.75;5057971;28;8795;-62
2022/04/10 04:11:45;;;;;;;;;3.60;3.00;;;;;3.17;72.94;100076.53;5057296;28;8818;-63
2022/04/10 04:14:13;;;;;;;;;3.00;3.00;;;;;3.15;73.15;100080.16;5058604;28;8911;-63
2022/04/10 04:16:41;;;;;;;;;3.80;3.80;;;;;3.15;73.29;100088.06;5048980;28;9581;-63
2022/04/10 04:19:08;;;;;;;;;1.40;1.00;;;;;3.13;73.18;100093.41;5038997;28;8875;-64
2022/04/10 04:21:36;;;;;;;;;3.00;3.00;;;;;3.12;73.26;100091.72;5056836;28;8869;-64
2022/04/10 04:24:04;;;;;;;;;3.20;3.20;;;;;3.10;73.46;100090.91;5057298;28;8826;-64
2022/04/10 04:26:32;;;;;;;;;2.20;2.20;;;;;3.10;73.87;100100.59;5056310;28;8825;-64
2022/04/10 04:29:04;;;;;;;;;2.00;1.60;;;;;3.10;73.26;100103.22;5057425;28;8868;-64
2022/04/10 04:31:32;;;;;;;;;1.80;1.40;;;;;3.12;73.09;100098.72;5047360;28;8858;-63
2022/04/10 04:34:00;;;;;;;;;3.00;3.00;;;;;3.13;73.61;100103.06;5037224;28;8817;-63
2022/04/10 04:36:28;;;;;;;;;3.00;3.00;;;;;3.11;73.25;100100.50;5037529;28;8960;-63
2022/04/10 04:38:57;;;;;;;;;4.00;3.00;;;;;3.08;73.03;100103.28;5037178;28;8868;-64
2022/04/10 04:41:24;;;;;;;;;3.60;3.60;;;;;3.07;73.85;100103.34;5055444;28;8844;-63
2022/04/10 04:43:52;;;;;;;;;4.80;4.80;;;;;3.05;73.55;100110.47;5057248;28;9039;-64
2022/04/10 04:46:20;;;;;;;;;3.60;3.40;;;;;3.03;73.55;100112.31;5053137;28;8856;-63
2022/04/10 04:48:48;;;;;;;;;3.40;3.00;;;;;3.02;73.52;100116.72;5037453;28;9499;-63
2022/04/10 04:51:15;;;;;;;;;2.60;2.60;;;;;3.05;73.60;100116.59;5053870;28;8814;-63
2022/04/10 04:53:44;;;;;;;;;3.00;3.00;;;;;3.07;73.60;100117.38;5057028;28;8834;-63
2022/04/10 04:56:12;;;;;;;;;0.00;0.00;;;;;3.07;73.20;100121.75;5055468;28;8895;-63
2022/04/10 04:58:40;;;;;;;;;1.80;1.00;;;;;3.05;73.10;100123.59;5056924;28;8866;-63
2022/04/10 05:01:08;;;;;;;;;3.60;3.00;;;;;3.02;73.13;100126.41;5052846;28;8827;-64
2022/04/10 05:03:35;;;;;;;;;3.40;3.20;;;;;3.01;73.35;100129.91;5036605;28;8813;-62
2022/04/10 05:06:10;;;;;;;;;1.00;1.00;;;;;3.01;73.64;100136.03;5037030;28;8883;-63
2022/04/10 05:08:39;;;;;;;;;4.00;4.00;;;;;3.02;72.80;100134.28;5037771;28;8865;-62
2022/04/10 05:11:08;;;;;;;;;3.60;3.00;;;;;3.03;73.59;100134.19;5043912;28;8837;-63
2022/04/10 05:13:39;;;;;;;;;2.00;2.00;;;;;3.05;72.93;100132.38;5056532;28;8823;-63
2022/04/10 05:16:07;;;;;;;;;3.00;3.00;;;;;3.09;72.95;100140.97;5053991;28;8860;-63
2022/04/10 05:18:34;;;;;;;;;1.40;1.40;;;;;3.11;72.99;100142.56;5037005;28;8845;-63
2022/04/10 05:21:03;;;;;;;;;1.40;1.40;;;;;3.12;72.97;100144.31;5044452;28;9523;-64
2022/04/10 05:23:30;;;;;;;;;3.00;3.00;;;;;3.14;73.27;100150.34;5036433;28;8840;-63
2022/04/10 05:25:58;;;;;;;;;3.80;3.80;;;;;3.18;73.05;100151.91;5036290;28;8883;-63
2022/04/10 05:28:26;;;;;;;;;6.20;3.00;;;;;3.22;73.03;100156.09;5036437;28;8912;-63
2022/04/10 05:30:53;;;;;;;;;3.00;3.00;;;;;3.25;72.99;100150.69;5036409;28;8955;-64
2022/04/10 05:33:22;;;;;;;;;3.00;3.00;;;;;3.29;72.88;100154.91;5036046;28;8918;-63
2022/04/10 05:35:52;;;;;;;;;3.00;3.00;;;;;3.36;72.89;100151.06;5036997;28;8837;-63
2022/04/10 05:38:20;;;;;;;;;1.00;1.00;;;;;3.41;72.90;100154.31;5035759;28;8837;-63
2022/04/10 05:40:52;;;;;;;;;2.20;2.20;;;;;3.48;72.77;100154.88;5036371;28;8849;-63
2022/04/10 05:43:21;;;;;;;;;2.40;1.80;;;;;3.55;72.28;100157.13;5045080;28;8830;-63
2022/04/10 05:45:50;;;;;;;;;4.20;2.60;;;;;3.62;71.95;100150.66;5055618;28;8852;-63
2022/04/10 05:48:18;;;;;;;;;1.00;1.00;;;;;3.69;71.93;100157.31;5037004;28;8821;-63
2022/04/10 05:50:45;;;;;;;;;3.60;3.60;;;;;3.76;72.18;100158.75;5042366;28;8847;-63
2022/04/10 05:53:13;;;;;;;;;2.60;1.40;;;;;3.84;71.87;100162.72;5041210;28;8822;-63
2022/04/10 05:55:41;;;;;;;;;4.80;4.00;;;;;3.92;71.89;100151.78;5055199;28;8815;-63
2022/04/10 05:58:09;;;;;;;;;4.00;3.20;;;;;4.02;71.77;100163.56;5055512;28;8855;-63
2022/04/10 06:00:37;;;;;;;;;2.20;2.20;;;;;4.10;71.02;100153.53;5050110;28;8952;-63
2022/04/10 06:03:04;;;;;;;;;1.40;1.00;;;;;4.19;71.50;100161.78;5035363;28;9034;-64
2022/04/10 06:05:33;;;;;;;;;4.00;3.60;;;;;4.28;70.64;100160.50;5034534;28;8843;-64
2022/04/10 06:08:01;;;;;;;;;4.40;3.80;;;;;4.38;71.18;100159.09;5036792;28;8848;-63
2022/04/10 06:10:28;;;;;;;;;3.00;3.00;;;;;4.46;70.67;100164.81;5034254;28;8863;-64
2022/04/10 06:12:56;;;;;;;;;2.40;1.00;;;;;4.55;70.46;100167.84;5046927;28;8831;-63
2022/04/10 06:15:25;;;;;;;;;1.80;1.00;;;;;4.65;70.20;100162.94;5037059;28;8947;-64
2022/04/10 06:17:52;;;;;;;;;3.60;3.00;;;;;4.71;70.48;100160.84;5034758;28;8967;-63
2022/04/10 06:20:20;;;;;;;;;1.00;1.00;;;;;4.78;70.31;100167.50;5036038;28;8843;-63
2022/04/10 06:22:48;;;;;;;;;2.20;2.20;;;;;4.84;69.50;100171.59;5034709;28;8816;-64
2022/04/10 06:25:16;;;;;;;;;4.00;1.00;;;;;4.92;69.86;100172.03;5035289;28;9548;-63
2022/04/10 06:27:44;;;;;;;;;1.00;1.00;;;;;4.99;69.96;100176.06;5036253;28;8994;-68
2022/04/10 06:30:12;;;;;;;;;3.40;2.80;;;;;5.06;69.53;100180.06;5042113;28;8826;-64
2022/04/10 06:32:39;;;;;;;;;3.40;3.40;;;;;5.15;69.56;100179.56;5055518;28;8819;-63
2022/04/10 06:35:08;;;;;;;;;4.40;4.00;;;;;5.17;69.92;100175.09;5054401;28;8934;-64
2022/04/10 06:37:38;;;;;;;;;3.40;3.00;;;;;5.21;69.28;100171.31;5034424;28;8837;-63
2022/04/10 06:40:05;;;;;;;;;3.80;3.20;;;;;5.26;69.30;100177.22;5035319;28;8844;-63
2022/04/10 06:42:33;;;;;;;;;4.00;4.00;;;;;5.33;69.22;100183.88;5035553;28;8983;-64
2022/04/10 06:45:01;;;;;;;;;4.00;3.80;;;;;5.43;69.18;100190.34;5035208;28;8828;-64
2022/04/10 06:47:31;;;;;;;;;4.00;3.40;;;;;5.55;68.83;100195.78;5015583;28;8831;-66
2022/04/10 06:49:59;;;;;;;;;2.60;1.00;;;;;5.68;68.48;100194.19;5034100;28;8872;-63
2022/04/10 06:52:26;;;;;;;;;3.60;3.20;;;;;5.79;68.65;100198.88;5042259;28;8866;-64
2022/04/10 06:54:55;;;;;;;;;1.40;1.00;;;;;5.90;68.14;100199.13;5059274;28;8860;-63
2022/04/10 06:57:22;;;;;;;;;3.80;1.00;;;;;6.06;68.34;100200.00;5058900;28;8889;-63
2022/04/10 06:59:50;;;;;;;;;1.00;1.00;;;;;6.20;67.55;100205.31;5051165;28;9479;-64
2022/04/10 07:02:18;;;;;;;;;0.60;0.00;;;;;6.26;67.33;100205.84;5044711;28;8855;-63
2022/04/10 07:04:46;;;;;;;;;4.60;3.60;;;;;6.33;67.64;100208.97;5059039;28;8976;-64
2022/04/10 07:07:13;;;;;;;;;1.00;1.00;;;;;6.29;67.56;100207.47;5058848;28;8907;-64
2022/04/10 07:09:41;;;;;;;;;1.00;1.00;;;;;6.21;68.08;100205.25;5059408;28;8856;-63
2022/04/10 07:12:09;;;;;;;;;1.80;1.80;;;;;6.19;67.83;100212.41;5058570;28;8823;-65
2022/04/10 07:14:37;;;;;;;;;3.00;2.60;;;;;6.21;67.70;100214.97;5058919;28;8847;-64
2022/04/10 07:17:05;;;;;;;;;0.40;0.00;;;;;6.35;67.83;100212.38;5041554;28;8821;-63
2022/04/10 07:19:32;;;;;;;;;3.00;2.20;;;;;6.45;67.54;100219.69;5038493;28;8871;-64
2022/04/10 07:24:46;;;;;;;;;1.80;1.80;;;;;6.67;67.18;100221.94;5045175;28;8833;-64
2022/04/10 07:27:13;;;;;;;;;1.00;1.00;;;;;6.72;66.94;100230.44;5039713;28;9003;-63
2022/04/10 07:29:41;;;;;;;;;3.40;3.40;;;;;6.77;67.22;100226.59;5040207;28;8882;-64
2022/04/10 07:32:09;;;;;;;;;3.20;1.00;;;;;6.80;67.29;100229.03;5035671;28;8840;-65
2022/04/10 07:34:37;;;;;;;;;1.00;1.00;;;;;6.88;66.70;100220.63;5038662;28;8833;-63
2022/04/10 07:37:04;;;;;;;;;3.00;2.60;;;;;7.05;66.76;100220.47;5038263;28;9482;-63
2022/04/10 07:39:32;;;;;;;;;4.00;3.80;;;;;7.19;66.24;100226.63;5039474;28;8859;-63
2022/04/10 07:42:00;;;;;;;;;1.00;1.00;;;;;7.23;65.82;100228.16;5038943;28;8824;-64
2022/04/10 07:44:47;;;;;;;;;3.00;3.00;;;;;7.26;66.06;100237.69;5039258;28;8999;-63
2022/04/10 07:47:26;;;;;;;;;0.60;0.00;;;;;7.39;65.81;100244.81;5040205;28;8999;-65
2022/04/10 07:49:54;;;;;;;;;5.60;4.00;;;;;7.53;65.73;100236.84;5041814;28;8852;-63
2022/04/10 07:52:22;;;;;;;;;0.80;0.60;;;;;7.70;65.56;100229.50;5037272;28;8837;-63
2022/04/10 07:54:50;;;;;;;;;3.00;3.00;;;;;7.94;64.96;100233.28;5045642;28;8948;-63
2022/04/10 07:57:17;;;;;;;;;3.60;3.00;;;;;8.17;64.32;100229.13;5057830;28;8886;-63
2022/04/10 07:59:45;;;;;;;;;3.00;3.00;;;;;8.38;64.25;100239.19;5056980;28;8858;-63
2022/04/10 08:02:12;;;;;;;;;3.00;3.00;;;;;8.42;64.00;100235.41;5039876;28;8820;-63
2022/04/10 08:04:42;;;;;;;;;3.40;3.40;;;;;8.29;63.86;100239.81;5038827;28;8844;-63
2022/04/10 08:07:09;;;;;;;;;4.00;4.00;;;;;8.28;64.56;100248.72;5038024;28;8934;-63
2022/04/10 08:09:37;;;;;;;;;3.80;3.00;;;;;8.24;64.55;100251.69;5038553;28;8844;-63
2022/04/10 08:12:05;;;;;;;;;1.00;1.00;;;;;8.18;64.75;100255.56;5038267;28;8839;-63
2022/04/10 08:14:34;;;;;;;;;1.00;1.00;;;;;8.15;64.56;100247.78;5038199;28;8825;-64
2022/04/10 08:17:03;;;;;;;;;1.00;0.00;;;;;8.17;64.29;100245.91;5054201;28;8871;-64
2022/04/10 08:19:30;;;;;;;;;0.80;0.80;;;;;8.26;64.11;100255.94;5058323;28;8846;-63
2022/04/10 08:21:58;;;;;;;;;1.00;1.00;;;;;8.25;64.50;100251.59;5040590;28;8828;-63
2022/04/10 08:24:27;;;;;;;;;2.00;2.00;;;;;8.41;64.00;100249.63;5039601;28;8844;-63
2022/04/10 08:26:55;;;;;;;;;1.00;1.00;;;;;8.63;64.19;100254.34;5057655;28;8846;-64
2022/04/10 08:29:23;;;;;;;;;2.00;0.00;;;;;8.75;63.46;100254.38;5057413;28;8842;-64
2022/04/10 08:31:50;;;;;;;;;1.00;1.00;;;;;8.70;63.28;100255.66;5054539;28;8825;-63
2022/04/10 08:34:18;;;;;;;;;3.00;2.50;;;;;8.78;62.99;100256.84;5056782;28;8831;-63
2022/04/10 08:36:46;;;;;;;;;3.00;3.00;;;;;8.83;63.47;100257.38;5045209;28;8821;-64
2022/04/10 08:39:14;;;;;;;;;2.50;2.50;;;;;8.89;63.06;100245.50;5037170;28;8926;-63
2022/04/10 08:41:41;;;;;;;;;2.50;2.50;;;;;8.88;63.23;100255.25;5036197;28;9486;-64
2022/04/10 08:44:09;;;;;;;;;1.00;1.00;;;;;8.88;63.00;100260.56;5036502;28;8829;-63
2022/04/10 08:46:37;;;;;;;;;0.25;0.00;;;;;8.88;63.07;100262.41;5048307;28;8831;-64
2022/04/10 08:49:05;;;;;;;;;1.00;0.00;;;;;9.13;62.45;100265.91;5056719;28;8830;-64
2022/04/10 08:51:32;;;;;;;;;0.75;0.75;;;;;9.35;61.42;100266.13;5045649;28;8820;-64
2022/04/10 08:54:02;;;;;;;;;2.50;2.50;;;;;9.34;62.07;100264.44;5036457;28;8851;-64
2022/04/10 08:56:30;;;;;;;;;1.00;1.00;;;;;9.49;61.34;100266.03;5045568;28;8863;-63
2022/04/10 08:58:58;;;;;;;;;1.00;1.00;;;;;9.63;61.47;100260.59;5036600;28;9003;-63
2022/04/10 09:01:25;;;;;;;;;1.50;1.50;;;;;9.87;60.67;100258.84;5042758;28;8864;-63
2022/04/10 09:03:53;;;;;;;;;1.00;1.00;;;;;10.03;60.40;100267.44;5056454;28;8873;-64
2022/04/10 09:06:21;;;;;;;;;1.00;1.00;;;;;10.08;59.86;100267.97;5056113;28;8900;-63
2022/04/10 09:08:49;;;;;;;;;1.00;1.00;;;;;10.17;60.42;100256.66;5043653;28;8821;-63
2022/04/10 09:11:16;;;;;;;;;0.50;0.50;;;;;10.17;59.53;100267.31;5037158;28;8839;-64
2022/04/10 09:13:47;;;;;;;;;1.00;1.00;;;;;10.14;59.76;100262.22;5035880;28;8878;-64
2022/04/10 09:16:15;;;;;;;;;2.00;2.00;;;;;10.22;59.97;100264.31;5044327;28;8834;-64
2022/04/10 09:18:43;;;;;;;;;1.00;1.00;;;;;10.26;59.68;100263.97;5055437;28;8818;-63
2022/04/10 09:21:11;;;;;;;;;0.25;0.00;;;;;10.26;59.87;100266.63;5056580;28;9548;-63
2022/04/10 09:23:38;;;;;;;;;1.50;1.00;;;;;10.21;59.70;100271.44;5056184;28;8842;-64
2022/04/10 09:26:06;;;;;;;;;1.00;1.00;;;;;10.15;59.67;100274.56;5040817;28;8813;-63
2022/04/10 09:28:34;;;;;;;;;0.50;0.00;;;;;10.04;59.99;100279.81;5055134;28;8981;-64
2022/04/10 09:31:02;;;;;;;;;6.50;5.25;;;;;9.84;59.83;100271.50;5055954;28;8845;-63
2022/04/10 09:33:29;;;;;;;;;3.75;3.75;;;;;9.71;60.69;100274.19;5055736;28;8852;-64
2022/04/10 09:35:57;;;;;;;;;4.50;3.50;;;;;9.66;60.49;100278.13;5054594;28;8833;-64
2022/04/10 09:38:25;;;;;;;;;0.25;0.25;;;;;9.70;60.58;100276.94;5054634;28;8849;-64
2022/04/10 09:40:52;;;;;;;;;0.75;0.75;;;;;9.78;60.56;100272.78;5049616;28;8827;-63
2022/04/10 09:43:21;;;;;;;;;3.25;3.00;;;;;9.86;60.24;100277.59;5036516;28;8853;-65
2022/04/10 09:45:48;;;;;;;;;3.50;3.50;;;;;9.73;60.32;100272.25;5037661;28;8847;-63
2022/04/10 09:48:16;;;;;;;;;0.00;0.00;;;;;9.45;60.42;100279.63;5039697;28;8823;-63
2022/04/10 09:50:44;;;;;;;;;2.50;2.50;;;;;9.19;61.01;100284.09;5056751;28;8826;-63
2022/04/10 09:53:12;;;;;;;;;3.00;3.00;;;;;8.99;61.82;100284.63;5056252;28;8819;-64
2022/04/10 09:55:40;;;;;;;;;1.00;1.00;;;;;8.93;61.83;100279.72;5051922;28;8837;-65
2022/04/10 09:58:09;;;;;;;;;3.00;2.00;;;;;8.88;61.60;100286.28;5040699;28;8859;-63
2022/04/10 10:00:36;;;;;;;;;0.00;0.00;;;;;8.79;61.93;100285.09;5042271;28;8825;-63
2022/04/10 10:03:04;;;;;;;;;2.00;1.50;;;;;8.67;62.26;100280.59;5036544;28;8817;-62
2022/04/10 10:05:32;;;;;;;;;3.00;2.50;;;;;8.56;62.61;100285.78;5035792;28;8828;-63
2022/04/10 10:08:00;;;;;;;;;3.00;3.00;;;;;8.46;62.24;100292.66;5036130;28;8923;-63
2022/04/10 10:10:27;;;;;;;;;3.00;3.00;;;;;8.35;62.96;100299.59;5038345;28;8850;-63
2022/04/10 10:12:56;;;;;;;;;4.80;4.80;;;;;8.20;62.80;100292.63;5055881;28;8846;-63
2022/04/10 10:15:31;;;;;;;;;1.00;1.00;;;;;8.02;63.05;100302.56;5052364;28;8928;-63
2022/04/10 10:17:59;;;;;;;;;3.00;3.00;;;;;7.85;63.24;100297.47;5035294;28;8820;-62
2022/04/10 10:20:27;;;;;;;;;1.00;1.00;;;;;7.74;63.97;100305.25;5035674;28;8987;-63
2022/04/10 10:22:55;;;;;;;;;3.00;3.00;;;;;7.67;63.68;100315.47;5035927;28;9559;-63
2022/04/10 10:25:24;;;;;;;;;1.00;1.00;;;;;7.63;63.63;100316.59;5034873;28;8848;-63
2022/04/10 10:27:52;;;;;;;;;4.00;3.20;;;;;7.68;63.42;100308.28;5055810;28;8882;-63
2022/04/10 10:30:20;;;;;;;;;1.00;1.00;;;;;7.81;63.68;100311.88;5052068;28;8847;-64
2022/04/10 10:32:48;;;;;;;;;2.80;2.20;;;;;8.01;63.00;100303.53;5052871;28;8823;-65
2022/04/10 10:35:16;;;;;;;;;3.00;3.00;;;;;8.22;62.71;100299.50;5052941;28;9480;-64
2022/04/10 10:37:44;;;;;;;;;3.40;3.00;;;;;8.38;62.55;100296.75;5041157;28;8950;-63
2022/04/10 10:40:11;;;;;;;;;5.60;4.40;;;;;8.82;61.67;100290.19;5034670;28;9517;-63
2022/04/10 10:42:40;;;;;;;;;2.50;2.50;;;;;10.50;59.12;100278.16;5030735;28;8829;-63
2022/04/10 10:45:07;;;;;;;;;3.75;3.25;;;;;12.42;55.42;100266.41;5034921;28;8837;-63
2022/04/10 10:47:35;;;;;;;;;3.25;3.00;;;;;14.12;52.41;100255.13;5035806;28;8841;-64
2022/04/10 10:50:03;;;;;;;;;3.75;3.00;;;;;14.27;52.47;100245.75;5035665;28;8878;-62
2022/04/10 10:52:31;;;;;;;;;4.00;3.67;;;;;13.46;53.73;100262.88;5035036;28;8837;-65
2022/04/10 10:54:59;;;;;;;;;3.50;3.00;;;;;12.60;55.60;100261.38;5034544;28;8825;-64
2022/04/10 10:57:26;;;;;;;;;3.00;3.00;;;;;11.83;57.03;100272.19;5035811;28;8963;-64
2022/04/10 10:59:54;;;;;;;;;3.00;3.00;;;;;11.33;58.07;100277.97;5035554;28;8856;-63
2022/04/10 11:02:22;;;;;;;;;3.00;3.00;;;;;11.02;59.26;100277.75;5052957;28;8826;-63
2022/04/10 11:05:09;;;;;;;;;4.00;4.00;;;;;10.71;60.06;100281.84;5054024;28;8858;-63
2022/04/10 11:07:39;;;;;;;;;3.00;3.00;;;;;10.44;59.96;100273.28;5055363;28;8858;-62
2022/04/10 11:10:07;;;;;;;;;6.00;4.00;;;;;10.20;60.69;100268.88;5054637;28;8972;-65
2022/04/10 11:12:37;;;;;;;;;3.00;3.00;;;;;10.01;61.21;100276.50;5054403;28;8818;-63
2022/04/10 11:15:05;;;;;;;;;5.00;5.00;;;;;10.36;60.05;100278.31;5054890;28;8896;-63
2022/04/10 11:17:32;;;;;;;;;4.25;4.25;;;;;11.74;57.70;100254.25;5035737;28;8971;-63
2022/04/10 11:20:00;;;;;;;;;3.75;3.75;;;;;12.64;55.87;100252.97;5034932;28;8899;-64
2022/04/10 11:22:28;;;;;;;;;3.00;2.33;;;;;14.28;52.85;100239.41;5032630;28;8833;-63
2022/04/10 11:24:56;;;;;;;;;5.50;2.75;;;;;15.77;49.77;100236.06;5032808;28;8828;-63
2022/04/10 11:27:23;;;;;;;;;1.00;1.00;;;;;16.95;48.16;100229.50;5034414;28;8841;-62
2022/04/10 11:29:51;;;;;;;;;2.50;2.00;;;;;16.61;48.56;100241.94;5039765;28;8856;-64
2022/04/10 11:32:19;;;;;;;;;3.00;3.00;;;;;15.32;50.56;100243.94;5045667;28;8829;-63
2022/04/10 11:34:47;;;;;;;;;0.00;0.00;;;;;14.34;52.62;100256.78;5054459;28;8852;-63
2022/04/10 11:37:16;;;;;;;;;1.00;0.50;;;;;15.07;50.96;100247.22;5057389;28;8823;-63
2022/04/10 11:39:44;;;;;;;;;0.75;0.25;;;;;16.39;49.03;100232.47;5058222;28;8830;-64
2022/04/10 11:42:12;;;;;;;;;0.00;0.00;;;;;17.70;46.80;100232.41;5056893;28;8853;-64
2022/04/10 11:44:41;;;;;;;;;0.20;0.20;;;;;18.40;45.54;100232.91;5057119;28;8996;-63
2022/04/10 11:47:10;;;;;;;;;0.60;0.20;;;;;17.61;46.77;100244.97;5040784;28;8825;-64
2022/04/10 11:49:38;;;;;;;;;4.00;3.40;;;;;16.26;48.74;100252.63;5056684;28;8826;-64